Terminal Aerodrome Forecast
Issued by NWS Charleston, WV

Current Version | Previous Version | Graphics & Text | Print | Product List | Glossary Off
Versions: 1 2 3 4 5 6 7 8 9 10 11 12 13 14 15 16 17 18 19 20 21 22 23 24 25 26 27 28 29

000
FTUS41 KRLX 270200 AAB
TAFCRW
TAF AMD
KCRW 270237Z 2703/2724 34005KT P6SM -RA OVC025
      TEMPO 2703/2705 BKN015
     FM270600 33006KT P6SM OVC025
     FM271200 33005KT P6SM SKC
     FM271800 32006KT P6SM SCT045=

USA.gov is the U.S. government's official web portal to all federal, state and local government web resources and services.